Time;durP1;ratioP1;P1;durP2;ratioP2;P2;SDS_P1;SDS_P2;PMS_P1;PMS_P2;Temp;Humidity;BMP_temperature;BMP_pressure;BME280_temperature;BME280_humidity;BME280_pressure;Samples;Min_cycle;Max_cycle;Signal;HPM_P1;HPM_P2
2023/09/17 00:01:53;;;;;;;6.65;4.20;;;;;;;;;;4993375;28;20188;-64
2023/09/17 00:04:19;;;;;;;8.48;4.15;;;;;;;;;;4995137;28;20030;-64
2023/09/17 00:06:44;;;;;;;8.95;4.32;;;;;;;;;;4995895;28;20038;-64
2023/09/17 00:09:10;;;;;;;5.32;4.07;;;;;;;;;;4994483;28;20034;-64
2023/09/17 00:11:35;;;;;;;6.93;4.28;;;;;;;;;;4980990;28;20034;-64
2023/09/17 00:14:01;;;;;;;6.07;4.45;;;;;;;;;;4995990;28;20026;-64
2023/09/17 00:16:31;;;;;;;7.65;4.30;;;;;;;;;;4996728;28;20066;-64
2023/09/17 00:18:57;;;;;;;6.57;4.47;;;;;;;;;;4994912;28;20053;-64
2023/09/17 00:21:22;;;;;;;7.95;4.75;;;;;;;;;;4985214;28;20118;-64
2023/09/17 00:23:48;;;;;;;7.60;4.43;;;;;;;;;;4994947;28;20179;-64
2023/09/17 00:26:13;;;;;;;8.70;4.88;;;;;;;;;;4992883;28;20035;-64
2023/09/17 00:28:39;;;;;;;6.85;4.85;;;;;;;;;;4994443;28;20034;-64
2023/09/17 00:31:04;;;;;;;9.38;4.80;;;;;;;;;;4995726;28;20083;-64
2023/09/17 00:33:29;;;;;;;8.43;4.32;;;;;;;;;;4990121;28;20431;-64
2023/09/17 00:35:55;;;;;;;6.80;4.88;;;;;;;;;;4989659;28;20413;-64
2023/09/17 00:38:20;;;;;;;5.35;4.45;;;;;;;;;;4995325;28;20376;-64
2023/09/17 00:40:46;;;;;;;7.13;4.30;;;;;;;;;;4996382;28;20500;-64
2023/09/17 00:43:11;;;;;;;7.53;4.80;;;;;;;;;;4986359;28;20032;-64
2023/09/17 00:45:40;;;;;;;6.75;4.43;;;;;;;;;;4993930;28;20108;-64
2023/09/17 00:48:06;;;;;;;7.32;4.30;;;;;;;;;;4996607;28;20018;-64
2023/09/17 00:50:32;;;;;;;7.90;4.38;;;;;;;;;;4995995;28;20443;-64
2023/09/17 00:52:59;;;;;;;7.05;5.07;;;;;;;;;;4987937;28;20109;-64
2023/09/17 00:55:25;;;;;;;7.65;4.82;;;;;;;;;;4994467;28;20081;-64
2023/09/17 00:57:51;;;;;;;11.73;5.82;;;;;;;;;;4992279;28;20037;-64
2023/09/17 01:00:20;;;;;;;6.13;4.15;;;;;;;;;;4990166;28;20117;-64
2023/09/17 01:02:47;;;;;;;7.45;4.45;;;;;;;;;;4992721;28;20391;-64
2023/09/17 01:05:13;;;;;;;9.15;4.55;;;;;;;;;;4991277;28;20065;-64
2023/09/17 01:07:39;;;;;;;5.20;4.38;;;;;;;;;;4993503;28;20038;-64
2023/09/17 01:10:05;;;;;;;5.15;4.40;;;;;;;;;;4995802;28;20117;-64
2023/09/17 01:12:31;;;;;;;5.43;4.45;;;;;;;;;;4994393;28;20114;-64
2023/09/17 01:14:57;;;;;;;9.07;4.90;;;;;;;;;;4991978;28;20042;-64
2023/09/17 01:17:27;;;;;;;8.10;4.72;;;;;;;;;;4984192;28;20088;-64
2023/09/17 01:19:56;;;;;;;5.10;4.45;;;;;;;;;;4980593;28;20117;-64
2023/09/17 01:22:34;;;;;;;9.35;4.80;;;;;;;;;;4995871;28;20035;-64
2023/09/17 01:25:18;;;;;;;8.35;4.72;;;;;;;;;;4986477;28;20030;-64
2023/09/17 01:27:44;;;;;;;5.45;4.68;;;;;;;;;;5021553;28;20121;-64
2023/09/17 01:30:16;;;;;;;6.85;4.97;;;;;;;;;;4995692;28;20053;-64
2023/09/17 01:32:42;;;;;;;7.18;4.63;;;;;;;;;;4993436;28;20026;-64
2023/09/17 01:35:11;;;;;;;12.40;5.03;;;;;;;;;;4992261;28;20041;-64
2023/09/17 01:37:39;;;;;;;7.43;4.80;;;;;;;;;;4989776;28;20141;-64
2023/09/17 01:40:14;;;;;;;6.97;4.55;;;;;;;;;;4994186;28;20488;-64
2023/09/17 01:42:43;;;;;;;5.53;4.03;;;;;;;;;;4984295;28;20041;-64
2023/09/17 01:45:12;;;;;;;8.07;4.53;;;;;;;;;;4994211;28;20038;-64
2023/09/17 01:47:38;;;;;;;6.63;5.00;;;;;;;;;;4992053;28;20030;-64
2023/09/17 01:50:05;;;;;;;8.48;4.55;;;;;;;;;;4994004;28;20065;-64
2023/09/17 01:52:32;;;;;;;6.85;4.68;;;;;;;;;;4990381;28;20045;-64
2023/09/17 01:55:00;;;;;;;11.50;5.00;;;;;;;;;;4993355;28;20076;-64
2023/09/17 01:57:26;;;;;;;6.43;4.80;;;;;;;;;;4996074;28;20030;-64
2023/09/17 01:59:51;;;;;;;5.03;4.53;;;;;;;;;;4993835;28;20109;-64
2023/09/17 02:02:16;;;;;;;7.43;4.60;;;;;;;;;;4993750;28;20030;-64
2023/09/17 02:04:42;;;;;;;5.25;4.75;;;;;;;;;;4993051;28;20030;-64
2023/09/17 02:07:07;;;;;;;7.35;5.00;;;;;;;;;;4993763;28;20034;-64
2023/09/17 02:09:33;;;;;;;9.73;5.38;;;;;;;;;;4996050;28;20049;-64
2023/09/17 02:11:58;;;;;;;6.28;4.85;;;;;;;;;;4994740;28;20045;-64
2023/09/17 02:14:24;;;;;;;10.48;5.43;;;;;;;;;;4992008;28;20019;-64
2023/09/17 02:16:50;;;;;;;5.85;5.20;;;;;;;;;;4998728;28;20038;-64
2023/09/17 02:19:16;;;;;;;7.55;4.38;;;;;;;;;;4996914;28;20283;-64
2023/09/17 02:21:41;;;;;;;5.68;4.53;;;;;;;;;;4991777;28;20034;-63
2023/09/17 02:24:07;;;;;;;5.72;4.80;;;;;;;;;;4993539;28;20054;-62
2023/09/17 02:26:33;;;;;;;10.05;5.47;;;;;;;;;;4998594;28;20062;-62
2023/09/17 02:28:58;;;;;;;6.43;5.13;;;;;;;;;;4998018;28;20058;-62
2023/09/17 02:31:24;;;;;;;6.43;5.00;;;;;;;;;;4989355;28;20121;-62
2023/09/17 02:33:49;;;;;;;8.10;5.10;;;;;;;;;;4986289;28;20022;-62
2023/09/17 02:36:14;;;;;;;6.97;4.72;;;;;;;;;;4994269;28;20031;-62
2023/09/17 02:38:43;;;;;;;8.05;5.20;;;;;;;;;;4991420;28;20654;-62
2023/09/17 02:41:09;;;;;;;6.55;5.03;;;;;;;;;;4989254;28;20042;-62
2023/09/17 02:43:36;;;;;;;7.88;4.93;;;;;;;;;;4993927;28;20043;-62
2023/09/17 02:46:03;;;;;;;8.30;4.60;;;;;;;;;;4997254;28;20508;-62
2023/09/17 02:48:29;;;;;;;7.20;5.45;;;;;;;;;;4996431;28;20085;-62
2023/09/17 02:50:55;;;;;;;7.45;5.25;;;;;;;;;;4997634;28;20042;-62
2023/09/17 02:53:20;;;;;;;6.63;4.97;;;;;;;;;;4994921;28;20049;-62
2023/09/17 02:55:46;;;;;;;7.43;5.18;;;;;;;;;;4996579;28;20161;-62
2023/09/17 02:58:12;;;;;;;7.15;5.15;;;;;;;;;;4994605;28;20118;-62
2023/09/17 03:00:38;;;;;;;7.72;5.20;;;;;;;;;;4994743;28;20038;-62
2023/09/17 03:03:04;;;;;;;7.80;4.97;;;;;;;;;;4988991;28;20034;-62
2023/09/17 03:05:29;;;;;;;6.18;4.70;;;;;;;;;;4996178;28;20038;-62
2023/09/17 03:07:55;;;;;;;8.25;4.93;;;;;;;;;;4997441;28;20487;-62
2023/09/17 03:10:20;;;;;;;12.93;5.22;;;;;;;;;;4992772;28;20203;-62
2023/09/17 03:12:46;;;;;;;8.80;5.15;;;;;;;;;;4990421;28;20106;-62
2023/09/17 03:15:15;;;;;;;7.50;5.40;;;;;;;;;;4990987;28;20038;-62
2023/09/17 03:17:43;;;;;;;6.60;4.55;;;;;;;;;;4996195;28;20041;-62
2023/09/17 03:20:17;;;;;;;6.85;5.57;;;;;;;;;;4997622;28;20053;-62
2023/09/17 03:22:44;;;;;;;6.72;4.47;;;;;;;;;;4992308;28;20486;-62
2023/09/17 03:25:12;;;;;;;7.25;5.25;;;;;;;;;;4988104;28;20034;-62
2023/09/17 03:27:38;;;;;;;8.38;4.80;;;;;;;;;;4995456;28;20040;-62
2023/09/17 03:30:05;;;;;;;5.10;4.60;;;;;;;;;;4997579;28;20030;-62
2023/09/17 03:32:31;;;;;;;11.43;4.97;;;;;;;;;;4993578;28;20060;-62
2023/09/17 03:34:57;;;;;;;6.80;5.30;;;;;;;;;;4991677;28;20415;-63
2023/09/17 03:37:23;;;;;;;8.45;5.75;;;;;;;;;;4991056;28;20121;-62
2023/09/17 03:40:08;;;;;;;8.07;4.95;;;;;;;;;;4997440;28;20049;-62
2023/09/17 03:42:34;;;;;;;5.70;4.57;;;;;;;;;;4984509;28;20051;-62
2023/09/17 03:45:00;;;;;;;9.70;5.35;;;;;;;;;;4993874;28;20081;-62
2023/09/17 03:47:25;;;;;;;10.45;4.97;;;;;;;;;;4997589;28;20034;-62
2023/09/17 03:49:50;;;;;;;8.55;5.10;;;;;;;;;;4990937;28;20029;-62
2023/09/17 03:52:16;;;;;;;6.15;5.35;;;;;;;;;;4993742;28;20040;-62
2023/09/17 03:54:41;;;;;;;6.63;5.43;;;;;;;;;;4990406;28;20080;-62
2023/09/17 03:57:08;;;;;;;6.75;5.00;;;;;;;;;;4996051;28;20074;-62
2023/09/17 03:59:34;;;;;;;6.57;4.80;;;;;;;;;;4990563;28;20034;-62
2023/09/17 04:01:59;;;;;;;7.30;4.72;;;;;;;;;;4989547;28;20443;-62
2023/09/17 04:04:24;;;;;;;8.30;4.85;;;;;;;;;;4992986;28;20046;-62
2023/09/17 04:06:50;;;;;;;11.80;4.75;;;;;;;;;;4995917;28;20038;-62
2023/09/17 04:09:16;;;;;;;6.85;4.72;;;;;;;;;;4993103;28;20022;-62
2023/09/17 04:11:41;;;;;;;8.38;5.03;;;;;;;;;;4990975;28;20082;-62
2023/09/17 04:14:07;;;;;;;9.20;4.68;;;;;;;;;;4988055;28;20034;-62
2023/09/17 04:16:33;;;;;;;9.48;4.75;;;;;;;;;;4987273;28;20042;-62
2023/09/17 04:18:58;;;;;;;8.88;5.20;;;;;;;;;;4988595;28;20602;-62
2023/09/17 04:21:23;;;;;;;8.25;4.95;;;;;;;;;;4992354;28;20042;-62
2023/09/17 04:23:49;;;;;;;9.50;5.22;;;;;;;;;;4992172;28;20065;-62
2023/09/17 04:26:15;;;;;;;7.88;5.10;;;;;;;;;;4988422;28;20501;-63
2023/09/17 04:28:41;;;;;;;7.63;5.00;;;;;;;;;;4995156;28;20084;-63
2023/09/17 04:31:06;;;;;;;5.63;4.70;;;;;;;;;;4996050;28;20030;-63
2023/09/17 04:33:32;;;;;;;6.50;4.78;;;;;;;;;;4991189;28;20023;-62
2023/09/17 04:35:58;;;;;;;6.63;5.32;;;;;;;;;;4988500;28;20401;-62
2023/09/17 04:38:24;;;;;;;9.25;4.70;;;;;;;;;;4989749;28;20485;-62
2023/09/17 04:40:50;;;;;;;7.85;4.88;;;;;;;;;;4991883;28;20069;-62
2023/09/17 04:43:16;;;;;;;6.78;4.57;;;;;;;;;;4994942;28;20041;-62
2023/09/17 04:45:42;;;;;;;7.32;5.03;;;;;;;;;;4999815;28;20042;-63
2023/09/17 04:48:09;;;;;;;7.03;5.50;;;;;;;;;;4996629;28;20054;-63
2023/09/17 04:50:34;;;;;;;10.02;4.95;;;;;;;;;;4992146;28;20113;-63
2023/09/17 04:53:00;;;;;;;12.25;5.30;;;;;;;;;;4986607;28;20061;-63
2023/09/17 04:55:26;;;;;;;9.75;5.10;;;;;;;;;;4993352;28;20050;-63
2023/09/17 04:57:52;;;;;;;6.97;4.65;;;;;;;;;;4994699;28;20023;-63
2023/09/17 05:00:20;;;;;;;6.07;4.72;;;;;;;;;;4988361;28;20130;-63
2023/09/17 05:02:46;;;;;;;9.57;4.90;;;;;;;;;;4985999;28;20044;-63
2023/09/17 05:05:12;;;;;;;10.55;5.25;;;;;;;;;;4988957;28;20074;-63
2023/09/17 05:07:38;;;;;;;8.50;5.07;;;;;;;;;;4985736;28;20455;-62
2023/09/17 05:10:05;;;;;;;9.27;5.10;;;;;;;;;;4989331;28;20058;-62
2023/09/17 05:12:30;;;;;;;6.05;4.38;;;;;;;;;;4990822;28;20496;-62
2023/09/17 05:14:55;;;;;;;7.45;5.40;;;;;;;;;;4986160;28;20069;-62
2023/09/17 05:17:21;;;;;;;8.55;5.22;;;;;;;;;;4992715;28;20022;-62
2023/09/17 05:19:46;;;;;;;11.63;5.07;;;;;;;;;;4995627;28;20050;-62
2023/09/17 05:22:12;;;;;;;7.78;5.05;;;;;;;;;;4995050;28;20089;-62
2023/09/17 05:24:37;;;;;;;10.45;5.35;;;;;;;;;;4992584;28;20587;-62
2023/09/17 05:27:03;;;;;;;8.80;5.22;;;;;;;;;;4984841;28;20541;-62
2023/09/17 05:29:28;;;;;;;6.00;5.25;;;;;;;;;;4993396;28;20476;-62
2023/09/17 05:31:54;;;;;;;6.28;5.05;;;;;;;;;;4990120;28;20117;-62
2023/09/17 05:34:19;;;;;;;7.03;4.90;;;;;;;;;;4991993;28;20030;-62
2023/09/17 05:36:45;;;;;;;9.80;5.28;;;;;;;;;;4985381;28;20038;-62
2023/09/17 05:39:10;;;;;;;6.32;4.97;;;;;;;;;;4995490;28;20073;-62
2023/09/17 05:41:37;;;;;;;11.85;5.75;;;;;;;;;;4993167;28;20093;-62
2023/09/17 05:44:03;;;;;;;9.68;5.07;;;;;;;;;;5026534;28;20119;-62
2023/09/17 05:46:30;;;;;;;10.68;5.05;;;;;;;;;;4988218;28;20035;-62
2023/09/17 05:48:56;;;;;;;6.35;4.90;;;;;;;;;;4989486;28;20131;-62
2023/09/17 05:51:22;;;;;;;8.30;4.80;;;;;;;;;;4999355;28;20034;-62
2023/09/17 05:53:48;;;;;;;7.97;5.05;;;;;;;;;;4999685;28;20424;-62
2023/09/17 05:56:13;;;;;;;6.57;5.20;;;;;;;;;;4991924;28;20035;-62
2023/09/17 05:58:38;;;;;;;9.00;5.28;;;;;;;;;;4980367;28;20022;-62
2023/09/17 06:01:04;;;;;;;8.88;4.90;;;;;;;;;;4986107;28;20042;-62
2023/09/17 06:03:30;;;;;;;6.47;4.90;;;;;;;;;;4996645;28;20026;-62
2023/09/17 06:05:55;;;;;;;4.78;4.32;;;;;;;;;;4996499;28;20062;-62
2023/09/17 06:08:22;;;;;;;10.65;5.32;;;;;;;;;;4999052;28;20022;-62
2023/09/17 06:10:48;;;;;;;10.85;4.88;;;;;;;;;;4995360;28;20392;-62
2023/09/17 06:13:14;;;;;;;7.25;5.20;;;;;;;;;;4994257;28;20026;-62
2023/09/17 06:15:39;;;;;;;9.10;5.15;;;;;;;;;;4993825;28;20046;-63
2023/09/17 06:18:05;;;;;;;9.65;4.82;;;;;;;;;;4991769;28;20447;-62
2023/09/17 06:20:30;;;;;;;7.45;5.03;;;;;;;;;;4989116;28;20093;-62
2023/09/17 06:22:56;;;;;;;9.82;5.60;;;;;;;;;;4981595;28;20022;-62
2023/09/17 06:25:23;;;;;;;5.50;4.93;;;;;;;;;;4995975;28;20043;-62
2023/09/17 06:27:48;;;;;;;5.82;4.90;;;;;;;;;;4992575;28;20085;-62
2023/09/17 06:30:14;;;;;;;5.45;4.57;;;;;;;;;;4997970;28;20038;-62
2023/09/17 06:32:40;;;;;;;8.40;4.65;;;;;;;;;;4992490;28;20121;-62
2023/09/17 06:35:06;;;;;;;6.65;4.82;;;;;;;;;;4988410;28;20081;-64
2023/09/17 06:37:31;;;;;;;6.47;4.82;;;;;;;;;;4983377;28;20023;-64
2023/09/17 06:39:57;;;;;;;7.38;4.72;;;;;;;;;;4991803;28;20086;-64
2023/09/17 06:42:23;;;;;;;6.47;4.57;;;;;;;;;;4992044;28;20026;-64
2023/09/17 06:44:48;;;;;;;6.60;4.97;;;;;;;;;;4990688;28;20041;-63
2023/09/17 06:47:14;;;;;;;7.68;5.15;;;;;;;;;;4992949;28;20045;-64
2023/09/17 06:49:39;;;;;;;12.82;4.97;;;;;;;;;;4997873;28;20034;-63
2023/09/17 06:52:05;;;;;;;8.73;5.18;;;;;;;;;;4995782;28;20038;-63
2023/09/17 06:54:30;;;;;;;7.82;4.93;;;;;;;;;;4988974;28;20022;-63
2023/09/17 06:56:56;;;;;;;7.15;5.30;;;;;;;;;;4995966;28;20030;-64
2023/09/17 06:59:21;;;;;;;9.68;4.78;;;;;;;;;;4998395;28;20022;-64
2023/09/17 07:01:47;;;;;;;9.15;5.10;;;;;;;;;;4996427;28;20039;-64
2023/09/17 07:04:12;;;;;;;5.32;4.70;;;;;;;;;;4991824;28;20034;-64
2023/09/17 07:06:38;;;;;;;9.80;5.22;;;;;;;;;;4985362;28;20038;-64
2023/09/17 07:09:04;;;;;;;11.57;5.45;;;;;;;;;;4997444;28;20491;-64
2023/09/17 07:11:29;;;;;;;8.13;5.25;;;;;;;;;;4995766;28;20038;-64
2023/09/17 07:13:56;;;;;;;7.68;4.47;;;;;;;;;;4994745;28;20109;-63
2023/09/17 07:16:23;;;;;;;9.98;4.85;;;;;;;;;;4995062;28;20049;-64
2023/09/17 07:18:49;;;;;;;11.70;5.18;;;;;;;;;;4995161;28;20050;-63
2023/09/17 07:21:15;;;;;;;8.73;5.40;;;;;;;;;;4992143;28;20448;-63
2023/09/17 07:23:41;;;;;;;8.38;5.07;;;;;;;;;;4995947;28;20042;-64
2023/09/17 07:26:07;;;;;;;7.47;4.55;;;;;;;;;;4986851;28;20042;-64
2023/09/17 07:28:33;;;;;;;9.27;5.30;;;;;;;;;;4991694;28;20033;-68
2023/09/17 07:30:58;;;;;;;6.07;4.82;;;;;;;;;;4994258;28;20060;-65
2023/09/17 07:33:24;;;;;;;9.43;5.28;;;;;;;;;;4990535;28;20746;-65
2023/09/17 07:35:50;;;;;;;11.65;5.35;;;;;;;;;;4992656;28;20045;-65
2023/09/17 07:38:15;;;;;;;11.77;5.45;;;;;;;;;;4987969;28;20035;-65
2023/09/17 07:40:41;;;;;;;5.88;4.90;;;;;;;;;;4983454;28;20146;-65
2023/09/17 07:43:07;;;;;;;11.20;5.68;;;;;;;;;;4985976;28;20112;-68
2023/09/17 07:45:33;;;;;;;12.27;5.80;;;;;;;;;;4983536;28;20133;-64
2023/09/17 07:47:59;;;;;;;15.20;5.45;;;;;;;;;;4987209;28;20030;-66
2023/09/17 07:50:25;;;;;;;11.32;5.72;;;;;;;;;;4987875;28;20049;-65
2023/09/17 07:52:50;;;;;;;11.82;5.55;;;;;;;;;;4981591;28;20046;-65
2023/09/17 07:55:20;;;;;;;10.52;5.53;;;;;;;;;;4984904;28;20030;-66
2023/09/17 07:57:46;;;;;;;10.57;5.53;;;;;;;;;;4983290;28;20046;-66
2023/09/17 08:00:15;;;;;;;9.27;5.85;;;;;;;;;;4982835;28;20043;-66
2023/09/17 08:02:41;;;;;;;9.85;5.40;;;;;;;;;;4981470;28;20037;-66
2023/09/17 08:05:07;;;;;;;13.63;5.80;;;;;;;;;;4980798;28;20026;-65
2023/09/17 08:07:32;;;;;;;11.70;5.50;;;;;;;;;;4984036;28;20488;-66
2023/09/17 08:09:58;;;;;;;12.40;5.68;;;;;;;;;;4982755;28;20066;-66
2023/09/17 08:12:23;;;;;;;18.73;6.68;;;;;;;;;;4987621;28;20109;-67
2023/09/17 08:14:48;;;;;;;11.60;6.00;;;;;;;;;;4980186;28;20019;-68
2023/09/17 08:17:14;;;;;;;10.63;5.63;;;;;;;;;;4990273;28;20034;-68
2023/09/17 08:19:39;;;;;;;15.40;5.20;;;;;;;;;;4986653;28;20704;-66
2023/09/17 08:22:05;;;;;;;14.38;6.43;;;;;;;;;;4988668;28;20026;-66
2023/09/17 08:24:30;;;;;;;15.73;5.93;;;;;;;;;;4986590;28;20093;-66
2023/09/17 08:26:56;;;;;;;11.35;6.10;;;;;;;;;;4987966;28;20066;-67
2023/09/17 08:29:22;;;;;;;20.63;6.07;;;;;;;;;;4984934;28;20176;-67
2023/09/17 08:31:48;;;;;;;11.68;5.75;;;;;;;;;;4990488;28;20065;-67
2023/09/17 08:34:14;;;;;;;13.18;5.88;;;;;;;;;;4985251;28;20033;-66
2023/09/17 08:36:40;;;;;;;13.80;6.60;;;;;;;;;;4991133;28;20061;-66
2023/09/17 08:39:06;;;;;;;16.83;6.38;;;;;;;;;;4984862;28;20045;-65
2023/09/17 08:41:35;;;;;;;12.80;6.00;;;;;;;;;;4983580;28;20045;-67
2023/09/17 08:44:04;;;;;;;14.27;5.78;;;;;;;;;;4982161;28;20031;-69
2023/09/17 08:46:30;;;;;;;15.55;5.97;;;;;;;;;;4988239;28;20577;-68
2023/09/17 08:48:56;;;;;;;12.30;5.68;;;;;;;;;;4965599;28;20436;-68
2023/09/17 08:51:24;;;;;;;21.23;6.15;;;;;;;;;;4988753;28;20030;-67
2023/09/17 08:53:53;;;;;;;21.60;6.22;;;;;;;;;;4986789;28;20054;-66
2023/09/17 08:56:19;;;;;;;22.75;6.32;;;;;;;;;;4982144;28;20084;-65
2023/09/17 08:58:52;;;;;;;22.00;6.65;;;;;;;;;;4985983;28;20065;-66
2023/09/17 09:01:20;;;;;;;17.95;5.93;;;;;;;;;;4986864;28;20581;-66
2023/09/17 09:03:45;;;;;;;11.82;5.78;;;;;;;;;;4977467;28;20615;-66
2023/09/17 09:06:12;;;;;;;20.42;6.65;;;;;;;;;;4984840;28;20034;-66
2023/09/17 09:08:41;;;;;;;16.48;6.10;;;;;;;;;;4989952;28;20034;-66
2023/09/17 09:11:08;;;;;;;21.23;5.78;;;;;;;;;;4992652;28;20064;-66
2023/09/17 09:13:34;;;;;;;15.38;5.80;;;;;;;;;;4987999;28;20109;-67
2023/09/17 09:16:00;;;;;;;14.23;6.20;;;;;;;;;;5008208;28;20042;-66
2023/09/17 09:18:26;;;;;;;15.07;5.63;;;;;;;;;;4987300;28;20504;-66
2023/09/17 09:20:51;;;;;;;13.80;5.80;;;;;;;;;;4987890;28;20048;-66
2023/09/17 09:23:16;;;;;;;11.52;6.00;;;;;;;;;;4994196;28;20030;-67
2023/09/17 09:25:42;;;;;;;11.48;5.45;;;;;;;;;;4995737;28;20034;-67
2023/09/17 09:28:07;;;;;;;13.20;5.78;;;;;;;;;;4994269;28;20038;-67
2023/09/17 09:30:35;;;;;;;12.93;6.18;;;;;;;;;;4989188;28;20144;-66
2023/09/17 09:33:00;;;;;;;9.73;5.47;;;;;;;;;;4981884;28;20101;-66
2023/09/17 09:35:26;;;;;;;14.55;5.22;;;;;;;;;;4991922;28;20578;-67
2023/09/17 09:37:55;;;;;;;12.85;5.78;;;;;;;;;;4987762;28;20031;-66
2023/09/17 09:40:21;;;;;;;14.90;5.45;;;;;;;;;;4991497;28;20038;-67
2023/09/17 09:42:48;;;;;;;13.90;5.63;;;;;;;;;;4983079;28;20030;-67
2023/09/17 09:45:15;;;;;;;15.57;5.78;;;;;;;;;;4991985;28;20050;-66
2023/09/17 09:47:45;;;;;;;13.52;5.60;;;;;;;;;;4985259;28;20030;-67
2023/09/17 09:50:31;;;;;;;14.77;5.65;;;;;;;;;;4995440;28;20130;-66
2023/09/17 09:52:56;;;;;;;16.33;5.93;;;;;;;;;;4989173;28;20038;-66
2023/09/17 09:55:27;;;;;;;15.32;5.82;;;;;;;;;;4988065;28;20576;-66
2023/09/17 09:57:53;;;;;;;12.57;5.30;;;;;;;;;;4993123;28;20034;-67
2023/09/17 10:00:26;;;;;;;11.73;5.40;;;;;;;;;;4993654;28;20129;-67
2023/09/17 10:02:55;;;;;;;11.63;5.55;;;;;;;;;;4987718;28;20069;-66
2023/09/17 10:05:33;;;;;;;12.48;5.65;;;;;;;;;;4988983;28;20061;-67
2023/09/17 10:07:59;;;;;;;8.27;5.05;;;;;;;;;;4989297;28;20026;-67
2023/09/17 10:10:24;;;;;;;8.98;5.63;;;;;;;;;;4993324;28;20034;-67
2023/09/17 10:12:52;;;;;;;14.05;5.55;;;;;;;;;;4986017;28;20026;-67
2023/09/17 10:15:18;;;;;;;9.50;5.22;;;;;;;;;;4995127;28;20098;-66
2023/09/17 10:17:46;;;;;;;8.45;5.28;;;;;;;;;;4986779;28;20488;-67
2023/09/17 10:20:12;;;;;;;13.30;4.90;;;;;;;;;;4984620;28;20046;-67
2023/09/17 10:22:39;;;;;;;8.07;4.80;;;;;;;;;;4987564;28;20783;-67
2023/09/17 10:25:08;;;;;;;12.13;5.30;;;;;;;;;;4994521;28;20077;-67
2023/09/17 10:27:37;;;;;;;9.93;5.28;;;;;;;;;;4987384;28;20494;-67
2023/09/17 10:30:04;;;;;;;8.85;5.15;;;;;;;;;;4989353;28;20026;-67
2023/09/17 10:32:32;;;;;;;11.60;4.90;;;;;;;;;;4989712;28;20022;-67
2023/09/17 10:34:59;;;;;;;11.05;5.32;;;;;;;;;;4992862;28;20109;-66
2023/09/17 10:37:26;;;;;;;12.52;5.35;;;;;;;;;;4995885;28;20092;-67
2023/09/17 10:39:52;;;;;;;8.95;5.03;;;;;;;;;;4993068;28;20069;-66
2023/09/17 10:42:20;;;;;;;11.40;4.85;;;;;;;;;;4985015;28;20025;-67
2023/09/17 10:44:47;;;;;;;10.48;4.95;;;;;;;;;;4998769;28;20034;-67
2023/09/17 10:47:14;;;;;;;9.90;4.90;;;;;;;;;;4993048;28;20119;-67
2023/09/17 10:49:40;;;;;;;10.05;5.10;;;;;;;;;;4994141;28;20057;-66
2023/09/17 10:52:07;;;;;;;12.60;5.43;;;;;;;;;;4986402;28;20046;-67
2023/09/17 10:54:33;;;;;;;10.63;5.53;;;;;;;;;;4992176;28;20461;-66
2023/09/17 10:57:05;;;;;;;13.85;6.15;;;;;;;;;;4988437;28;20030;-67
2023/09/17 10:59:31;;;;;;;;;;;;;;;;;;4993526;28;20027;-68
2023/09/17 11:01:57;;;;;;;21.20;5.65;;;;;;;;;;4989611;28;19944;-67
2023/09/17 11:04:25;;;;;;;18.77;4.95;;;;;;;;;;4987802;28;20022;-69
2023/09/17 11:06:52;;;;;;;13.60;5.15;;;;;;;;;;4988233;28;20396;-66
2023/09/17 11:09:19;;;;;;;31.20;5.45;;;;;;;;;;4990989;28;20369;-67
2023/09/17 11:11:45;;;;;;;14.65;5.65;;;;;;;;;;4986636;28;20448;-67
2023/09/17 11:14:12;;;;;;;13.82;5.97;;;;;;;;;;4993518;28;20228;-67
2023/09/17 11:16:38;;;;;;;13.77;5.50;;;;;;;;;;4986526;28;20049;-67
2023/09/17 11:19:11;;;;;;;15.60;4.80;;;;;;;;;;4990078;28;20109;-68
2023/09/17 11:21:39;;;;;;;18.20;5.57;;;;;;;;;;4990403;28;20042;-66
2023/09/17 11:24:07;;;;;;;12.02;5.28;;;;;;;;;;4984595;28;20027;-66
2023/09/17 11:26:37;;;;;;;12.82;5.57;;;;;;;;;;4983870;28;20039;-67
2023/09/17 11:29:05;;;;;;;11.85;4.75;;;;;;;;;;4991906;28;20042;-67
2023/09/17 11:31:36;;;;;;;12.57;5.68;;;;;;;;;;4994113;28;20134;-67
2023/09/17 11:34:09;;;;;;;14.68;5.40;;;;;;;;;;4991968;28;20026;-67
2023/09/17 11:36:35;;;;;;;11.55;5.68;;;;;;;;;;4984698;28;20042;-66
2023/09/17 11:39:06;;;;;;;20.33;5.65;;;;;;;;;;4984585;28;20042;-66
2023/09/17 11:41:35;;;;;;;18.52;5.72;;;;;;;;;;4990099;28;20045;-68
2023/09/17 11:44:03;;;;;;;12.52;5.38;;;;;;;;;;4987083;28;20033;-69
2023/09/17 11:46:29;;;;;;;13.90;5.25;;;;;;;;;;4984911;28;20077;-67
2023/09/17 11:48:55;;;;;;;12.88;4.88;;;;;;;;;;4984487;28;20106;-67
2023/09/17 11:51:23;;;;;;;14.77;5.18;;;;;;;;;;4984988;28;20058;-67
2023/09/17 11:53:59;;;;;;;12.25;5.30;;;;;;;;;;4988761;28;20023;-68
2023/09/17 11:56:35;;;;;;;10.90;5.18;;;;;;;;;;4982260;28;20531;-67
2023/09/17 11:59:02;;;;;;;12.88;5.28;;;;;;;;;;4988181;28;20018;-67
2023/09/17 12:01:31;;;;;;;10.73;4.97;;;;;;;;;;4992704;28;20038;-67
2023/09/17 12:03:57;;;;;;;11.68;4.90;;;;;;;;;;4986168;28;20039;-67
2023/09/17 12:06:24;;;;;;;20.77;5.95;;;;;;;;;;4988466;28;20067;-67
2023/09/17 12:08:50;;;;;;;16.90;5.10;;;;;;;;;;4985515;28;20030;-67
2023/09/17 12:11:21;;;;;;;11.38;4.97;;;;;;;;;;5000271;28;20037;-66
2023/09/17 12:13:53;;;;;;;11.70;5.15;;;;;;;;;;4990998;28;20453;-68
2023/09/17 12:16:22;;;;;;;13.48;5.35;;;;;;;;;;4993484;28;20041;-67
2023/09/17 12:18:47;;;;;;;13.80;5.22;;;;;;;;;;4988295;28;20550;-67
2023/09/17 12:21:14;;;;;;;12.55;5.50;;;;;;;;;;4985054;28;20089;-68
2023/09/17 12:24:06;;;;;;;12.65;5.50;;;;;;;;;;4987738;28;20541;-67
2023/09/17 12:26:34;;;;;;;15.70;5.05;;;;;;;;;;4991543;28;20034;-67
2023/09/17 12:29:00;;;;;;;10.13;4.80;;;;;;;;;;4995626;28;20503;-67
2023/09/17 12:31:26;;;;;;;16.02;5.00;;;;;;;;;;4989133;28;20042;-67
2023/09/17 12:33:52;;;;;;;17.50;5.90;;;;;;;;;;4985571;28;20030;-67
2023/09/17 12:36:19;;;;;;;18.95;5.10;;;;;;;;;;4991729;28;20050;-67
2023/09/17 12:38:45;;;;;;;11.10;4.90;;;;;;;;;;4992220;28;20025;-67
2023/09/17 12:41:12;;;;;;;13.13;4.95;;;;;;;;;;4992580;28;20524;-67
2023/09/17 12:43:38;;;;;;;16.10;4.80;;;;;;;;;;4985273;28;20030;-67
2023/09/17 12:46:04;;;;;;;19.33;5.50;;;;;;;;;;4991817;28;20057;-66
2023/09/17 12:48:29;;;;;;;14.20;5.05;;;;;;;;;;4991656;28;20094;-67
2023/09/17 12:50:55;;;;;;;16.30;4.60;;;;;;;;;;4989039;28;20529;-67
2023/09/17 12:53:20;;;;;;;15.85;5.28;;;;;;;;;;4989401;28;20034;-67
2023/09/17 12:55:46;;;;;;;11.07;4.55;;;;;;;;;;4995818;28;20057;-67
2023/09/17 12:58:13;;;;;;;14.38;5.38;;;;;;;;;;4984722;28;20038;-67
2023/09/17 13:00:38;;;;;;;15.65;5.63;;;;;;;;;;4993163;28;20034;-67
2023/09/17 13:03:14;;;;;;;13.10;4.68;;;;;;;;;;4996309;28;20023;-67
2023/09/17 13:05:40;;;;;;;9.00;4.45;;;;;;;;;;4989700;28;20077;-67
2023/09/17 13:08:07;;;;;;;18.38;4.85;;;;;;;;;;4991303;28;20026;-67
2023/09/17 13:10:34;;;;;;;12.00;4.75;;;;;;;;;;4993969;28;20404;-67
2023/09/17 13:13:04;;;;;;;10.30;4.25;;;;;;;;;;4984647;28;20065;-67
2023/09/17 13:15:29;;;;;;;11.65;4.25;;;;;;;;;;4987468;28;20149;-67
2023/09/17 13:17:55;;;;;;;9.95;4.38;;;;;;;;;;4991211;28;20078;-67
2023/09/17 13:20:22;;;;;;;18.60;4.60;;;;;;;;;;4995448;28;20049;-67
2023/09/17 13:22:48;;;;;;;7.95;4.25;;;;;;;;;;4990400;28;20080;-67
2023/09/17 13:25:14;;;;;;;15.38;4.30;;;;;;;;;;4992655;28;20064;-67
2023/09/17 13:27:39;;;;;;;12.50;4.72;;;;;;;;;;4989042;28;20030;-66
2023/09/17 13:30:08;;;;;;;11.77;4.18;;;;;;;;;;4984792;28;20480;-67
2023/09/17 13:32:34;;;;;;;8.00;3.72;;;;;;;;;;4989155;28;20122;-67
2023/09/17 13:35:00;;;;;;;11.25;4.47;;;;;;;;;;4990402;28;20031;-67
2023/09/17 13:37:26;;;;;;;9.68;4.00;;;;;;;;;;4989482;28;20587;-67
2023/09/17 13:39:52;;;;;;;8.63;3.83;;;;;;;;;;4987987;28;20180;-66
2023/09/17 13:42:18;;;;;;;9.75;4.35;;;;;;;;;;4989083;28;20054;-67
2023/09/17 13:44:44;;;;;;;8.15;3.78;;;;;;;;;;4995324;28;20023;-67
2023/09/17 13:47:11;;;;;;;18.77;4.45;;;;;;;;;;4976759;28;20526;-67
2023/09/17 13:49:37;;;;;;;10.65;3.90;;;;;;;;;;4985732;28;20126;-68
2023/09/17 13:52:04;;;;;;;8.63;3.85;;;;;;;;;;4981533;28;20035;-67
2023/09/17 13:54:29;;;;;;;11.43;4.30;;;;;;;;;;4991077;28;20052;-67
2023/09/17 13:56:55;;;;;;;8.98;4.07;;;;;;;;;;4982648;28;20701;-68
2023/09/17 13:59:20;;;;;;;11.48;3.97;;;;;;;;;;4997860;28;20050;-65
2023/09/17 14:01:45;;;;;;;10.95;4.38;;;;;;;;;;4983959;28;20993;-67
2023/09/17 14:04:11;;;;;;;9.95;3.65;;;;;;;;;;4990121;28;20073;-68
2023/09/17 14:06:37;;;;;;;11.63;4.32;;;;;;;;;;4994182;28;20139;-67
2023/09/17 14:09:02;;;;;;;11.20;3.83;;;;;;;;;;4985413;28;20068;-67
2023/09/17 14:11:28;;;;;;;10.70;4.40;;;;;;;;;;4984137;28;20053;-67
2023/09/17 14:13:53;;;;;;;13.68;3.60;;;;;;;;;;4993823;28;20431;-67
2023/09/17 14:16:19;;;;;;;11.18;4.22;;;;;;;;;;4998959;28;20042;-67
2023/09/17 14:18:45;;;;;;;12.48;4.25;;;;;;;;;;4991044;28;20050;-67
2023/09/17 14:21:11;;;;;;;11.98;4.30;;;;;;;;;;4997109;28;20066;-67
2023/09/17 14:23:36;;;;;;;11.07;4.25;;;;;;;;;;4983396;28;20686;-67
2023/09/17 14:26:02;;;;;;;11.90;3.95;;;;;;;;;;4987616;28;20039;-67
2023/09/17 14:28:27;;;;;;;14.13;4.25;;;;;;;;;;4984466;28;20560;-70
2023/09/17 14:30:56;;;;;;;10.43;4.10;;;;;;;;;;4989459;28;20434;-67
2023/09/17 14:33:21;;;;;;;11.57;4.90;;;;;;;;;;4986489;28;20038;-68
2023/09/17 14:35:47;;;;;;;20.88;4.32;;;;;;;;;;4993891;28;20408;-68